Hartford, Alabama
Current Conditions -  °F | °C
As of 4:58 AM on Sunday 23 Nov 2014 (Local Time) from KOZR Reporting Station
Drizzle Drizzle  
Wind Chill: 62°   Ceiling: 300
Heat Index: 62°   Visibility: 4mi
Dew Point: 61°   Wind: 10mph
Humidity: 98%   Direction: 100°E
Pressure: 29.9"   Gusts: NA
Location:  31.1°N, 85.7°W
Report Text: KOZR 231058Z AUTO 10009KT 4SM -DZ BR OVC003 17/16 A2990 RMK AO2 DZB1051 SLP126 P0001 T01660163
Loading
Personal Weather Stations






























Interactive Weather Map New forecast layout! Learn more

10-Day Weather Forecast

Advertisements
Track Severe Weather on mobile